Forest Lake, Michigan
Current Conditions -  °F | °C
As of 3:34 AM on Thursday 29 Jan 2015 (Local Time) from KISQ Reporting Station
Overcast Overcast  
Wind Chill: 23°   Ceiling: 3200
Heat Index: 30°   Visibility: 10mi
Dew Point: 22°   Wind: 7mph
Humidity: 72%   Direction: 160°SSE
Pressure: 29.82"   Gusts: NA
Location:  46.4479°N, 86.4779°W
Report Text: KISQ 290834Z AUTO 16006KT 10SM OVC032 M01/M06 A2982 RMK AO2 T10111056
Loading
Personal Weather Stations






























Interactive Weather Map New forecast layout! Learn more

10-Day Weather Forecast

Advertisements
Track Severe Weather on mobile